Strona główna
METAR-TAF:

METAR-TAF

Lotnisko :

Thule, Grenlandia

Szerokość geograficzna: 76-32N, Długość geograficzna: 068-42W, wysokość: 77 m

Aktualna obserwacja pogody

Raport powstał 19 minut temu, godzina 02:56 UTC
Cisza
Temperatura 4°C
Wilgotność 93%
Ciśnienie
Widzialność 10 km lub więcej
Przerywane chmury na wysokości 16000 ft

METAR: BGTL 180256Z AUTO 00000KT 9999 BKN160 04/03 M RMK AO2 SLPNO T00420027 TSNO $

czas: 00:15 (03:15 UTC)

Prognoza

Raport powstał 2 godziny i 15 minut temu, godzina 01:00 UTC
Prognoza ważna od 18 godzina 01 UTC do 19 godzina 07 UTC
Wiatr 9 kt od zachód
Widzialność 10 km lub więcej
Mało chmury na wysokości 20000 ft
Stopniowe zmiany
od 18 godzina 23 UTC do 18 godzina 24 UTC
Wiatr 9 kt od południe
Widzialność: 1809 m
Mało chmury na wysokości 5000 ft
Rozproszone chmury na wysokości 10000 ft
Przerywane chmury na wysokości 15000 ft

TAF: BGTL 180100Z 1801/1907 28009KT 9999 FEW200 QNH2972INS BECMG 1823/1824 18009KT 9999 FEW050 SCT100 BKN150 QNH2983INS TX03/1817Z TN01/1802Z LAST NO AMDS AFT 1801 NEXT 1809

Obserwacja i prognoza pogody dla ponad 4000 lotnisk (raport METAR i TAF).

Dostępne stacje oznaczono żółtymi i czerwonymi punktami na mapie.

Najedź kursorem aby zobaczyć nazwę stacji.

Kliknij aby zobaczyć obserwacje i prognozy pogody.

Aby zmienić mapę: kliknij na zielony przycisk z czarnym krzyżykiem, aby powiększyć; na zielony przycisk z myślnikiem, aby pomniejszyć; na zielone strzałki, aby przejść do map sąsiednich.


METAR-TAF: